world map with QBC marked

QBC - Airport

This information may not be accurate or current and is not valid for navigation or flight planning. No warranty of fitness for any purpose is made or implied.

flag of British Columbiaflag of Canada

Donate via PayPal

Additional information is available on the NEW Great Circle Mapper

Location
City:  Bella Coola, British Columbia, Canada
Name:Bella Coola Airport
ICAO / IATA:CYBD / QBC

Details
Type:Airport (Airfield)
Use:Private
Latitude:52°23'15"N (52.387500)
Longitude:126°35'45"W (-126.595832)
Elevation:117 ft (36 m)
Runways:1
Longest:4200 ft (1280 m)

Time
Timezone:UTC+26:08 (DST+29:08)
Local Time:

Weather
METAR:CYBD  040100Z 08014G27KT 060V140 15SM SCT065 M14/M28 A3012 RMK SC4 SLP203

Related Locations
Nearby:
Farthest:FAME: 11644 mi / 18739 km
Marion Island, Prince Edward Islands, WC, ZA

Find:

   beyond  
but within

Other Information
Maps:
Sources:

  


 


Great Circle Mapper   Great Circle Mapper
Great Circle Mapper FAQ   Great Circle Mapper FAQ
  Karl's Home Page
KLSē   KLSē Home
   GC on Facebook
Airlines of the World   Airlines of the World
Donate via PayPal


Copyright © 2004-2019, Karl L. Swartz. All rights reserved.
All trademarks mentioned herein belong to their respective owners.

Please see credits for attribution and copyright information.

Karl Swartz <karl@kls2.com>
  Powered by FreeBSD
Valid HTML 4.01!
Labeled with ICRA
hCard Microformat
Geo Microformat